createdAt,value
2023-01-29T00:01:56.760Z,-4.01
2023-01-29T00:04:24.277Z,-4.05
2023-01-29T00:06:51.192Z,-4.06
2023-01-29T00:09:18.638Z,-4.15
2023-01-29T00:11:45.611Z,-4.15
2023-01-29T00:14:13.240Z,-4.22
2023-01-29T00:16:40.093Z,-4.22
2023-01-29T00:19:07.330Z,-4.19
2023-01-29T00:21:34.658Z,-4.15
2023-01-29T00:24:01.608Z,-4.14
2023-01-29T00:26:29.014Z,-4.19
2023-01-29T00:29:02.003Z,-4.18
2023-01-29T00:31:29.319Z,-4.16
2023-01-29T00:33:56.425Z,-4.21
2023-01-29T00:36:25.358Z,-4.20
2023-01-29T00:39:02.897Z,-4.23
2023-01-29T00:41:51.101Z,-4.30
2023-01-29T00:44:37.306Z,-4.32
2023-01-29T00:47:05.202Z,-4.05
2023-01-29T00:49:32.045Z,-4.07
2023-01-29T00:52:17.429Z,-4.02
2023-01-29T00:54:44.429Z,-4.06
2023-01-29T00:57:36.204Z,-4.13
2023-01-29T01:00:07.635Z,-4.07
2023-01-29T01:02:53.165Z,-3.82
2023-01-29T01:05:20.428Z,-3.73
2023-01-29T01:07:53.567Z,-3.77
2023-01-29T01:10:29.287Z,-3.80
2023-01-29T01:13:07.189Z,-3.74
2023-01-29T01:15:37.437Z,-3.67
2023-01-29T01:18:05.049Z,-3.60
2023-01-29T01:20:35.501Z,-3.56
2023-01-29T01:23:03.254Z,-3.50
2023-01-29T01:25:30.065Z,-3.42
2023-01-29T01:30:26.959Z,-3.35
2023-01-29T01:32:54.111Z,-3.29
2023-01-29T01:35:21.137Z,-3.17
2023-01-29T01:37:48.108Z,-3.14
2023-01-29T01:40:19.320Z,-3.20
2023-01-29T01:42:55.668Z,-3.16
2023-01-29T01:45:36.576Z,-3.09
2023-01-29T01:48:13.204Z,-3.06
2023-01-29T01:51:06.854Z,-3.07
2023-01-29T01:53:52.610Z,-2.97
2023-01-29T01:56:38.161Z,-2.96
2023-01-29T01:59:10.920Z,-2.91
2023-01-29T02:01:42.885Z,-2.90
2023-01-29T02:04:35.157Z,-2.83
2023-01-29T02:07:23.819Z,-2.74
2023-01-29T02:10:01.851Z,-2.74
2023-01-29T02:12:31.215Z,-2.71
2023-01-29T02:14:58.169Z,-2.71
2023-01-29T02:17:25.243Z,-2.66
2023-01-29T02:20:24.438Z,-2.63
2023-01-29T02:23:12.207Z,-2.53
2023-01-29T02:26:27.632Z,-2.48
2023-01-29T02:29:22.695Z,-2.49
2023-01-29T02:32:17.538Z,-2.45
2023-01-29T02:35:14.653Z,-2.42
2023-01-29T02:38:18.220Z,-2.32
2023-01-29T02:41:01.616Z,-2.28
2023-01-29T02:43:58.021Z,-2.27
2023-01-29T02:46:37.342Z,-2.41
2023-01-29T02:49:24.716Z,-2.40
2023-01-29T02:52:17.394Z,-2.30
2023-01-29T02:54:53.459Z,-2.33
2023-01-29T02:57:29.112Z,-2.32
2023-01-29T03:00:09.599Z,-2.39
2023-01-29T03:02:49.704Z,-2.34
2023-01-29T03:05:30.991Z,-2.30
2023-01-29T03:08:06.692Z,-2.23
2023-01-29T03:10:58.659Z,-2.11
2023-01-29T03:14:07.465Z,-2.10
2023-01-29T03:16:45.837Z,-2.05
2023-01-29T03:19:26.032Z,-2.01
2023-01-29T03:21:59.972Z,-1.97
2023-01-29T03:25:08.987Z,-1.96
2023-01-29T03:28:02.518Z,-2.01
2023-01-29T03:30:59.426Z,-2.03
2023-01-29T03:33:47.054Z,-2.05
2023-01-29T03:36:26.879Z,-2.11
2023-01-29T03:38:53.946Z,-2.10
2023-01-29T03:41:36.796Z,-2.11
2023-01-29T03:44:43.366Z,-2.20
2023-01-29T03:47:27.582Z,-2.24
2023-01-29T03:50:13.206Z,-2.23
2023-01-29T03:52:46.101Z,-2.09
2023-01-29T03:55:22.957Z,-1.96
2023-01-29T03:58:00.959Z,-1.93
2023-01-29T04:00:37.791Z,-1.99
2023-01-29T04:03:17.062Z,-1.95
2023-01-29T04:06:09.870Z,-1.85
2023-01-29T04:09:01.873Z,-1.94
2023-01-29T04:11:31.105Z,-1.92
2023-01-29T04:13:58.471Z,-1.91
2023-01-29T04:16:44.774Z,-1.78
2023-01-29T04:19:30.631Z,-1.81
2023-01-29T04:22:21.132Z,-1.83
2023-01-29T04:24:50.143Z,-1.78
2023-01-29T04:27:44.365Z,-1.86
2023-01-29T04:30:39.674Z,-1.83
2023-01-29T04:33:22.171Z,-1.78
2023-01-29T04:36:18.246Z,-1.87
2023-01-29T04:39:03.776Z,-1.92
2023-01-29T04:41:59.803Z,-1.96
2023-01-29T04:44:40.087Z,-1.93
2023-01-29T04:47:49.487Z,-1.93
2023-01-29T04:50:30.207Z,-1.92
2023-01-29T04:53:15.737Z,-1.95
2023-01-29T04:55:55.382Z,-1.92
2023-01-29T04:58:41.720Z,-1.90
2023-01-29T05:01:14.151Z,-1.84
2023-01-29T05:03:45.902Z,-1.91
2023-01-29T05:06:14.063Z,-1.91
2023-01-29T05:08:42.275Z,-1.83
2023-01-29T05:11:10.066Z,-1.79
2023-01-29T05:13:41.091Z,-1.84
2023-01-29T05:16:12.749Z,-1.77
2023-01-29T05:18:40.974Z,-1.75
2023-01-29T05:21:09.451Z,-1.63
2023-01-29T05:23:36.938Z,-1.69
2023-01-29T05:26:04.424Z,-1.67
2023-01-29T05:28:31.669Z,-1.74
2023-01-29T05:30:58.644Z,-1.69
2023-01-29T05:33:31.313Z,-1.65
2023-01-29T05:36:01.297Z,-1.60
2023-01-29T05:38:28.270Z,-1.57
2023-01-29T05:40:55.122Z,-1.58
2023-01-29T05:43:25.114Z,-1.55
2023-01-29T05:46:01.581Z,-1.44
2023-01-29T05:48:29.917Z,-1.64
2023-01-29T05:51:04.317Z,-1.57
2023-01-29T05:53:32.412Z,-1.43
2023-01-29T05:56:02.480Z,-1.52
2023-01-29T05:58:31.854Z,-1.53
2023-01-29T06:00:58.734Z,-1.45
2023-01-29T06:03:25.875Z,-1.42
2023-01-29T06:05:52.735Z,-1.42
2023-01-29T06:08:19.664Z,-1.35
2023-01-29T06:10:46.457Z,-1.48
2023-01-29T06:13:13.346Z,-1.52
2023-01-29T06:15:41.843Z,-1.49
2023-01-29T06:18:08.671Z,-1.50
2023-01-29T06:20:35.610Z,-1.46
2023-01-29T06:23:02.625Z,-1.47
2023-01-29T06:25:29.486Z,-1.41
2023-01-29T06:27:59.310Z,-1.49
2023-01-29T06:30:26.843Z,-1.55
2023-01-29T06:32:58.780Z,-1.55
2023-01-29T06:35:26.080Z,-1.57
2023-01-29T06:37:53.326Z,-1.63
2023-01-29T06:40:20.377Z,-1.67
2023-01-29T06:42:47.185Z,-1.57
2023-01-29T06:45:14.218Z,-1.54
2023-01-29T06:47:41.239Z,-1.59
2023-01-29T06:50:08.837Z,-1.46
2023-01-29T06:52:35.702Z,-1.50
2023-01-29T06:55:02.603Z,-1.65
2023-01-29T06:57:30.182Z,-1.62
2023-01-29T06:59:57.161Z,-1.63
2023-01-29T07:02:24.157Z,-1.59
2023-01-29T07:04:51.238Z,-1.62
2023-01-29T07:07:18.519Z,-1.71
2023-01-29T07:09:45.518Z,-1.62
2023-01-29T07:12:12.348Z,-1.61
2023-01-29T07:14:39.231Z,-1.61
2023-01-29T07:17:06.045Z,-1.56
2023-01-29T07:19:33.033Z,-1.64
2023-01-29T07:22:02.467Z,-1.67
2023-01-29T07:24:29.500Z,-1.63
2023-01-29T07:26:56.857Z,-1.54
2023-01-29T07:29:23.970Z,-1.54
2023-01-29T07:31:50.959Z,-1.48
2023-01-29T07:34:17.989Z,-1.45
2023-01-29T07:36:44.893Z,-1.49
2023-01-29T07:39:11.784Z,-1.53
2023-01-29T07:41:38.589Z,-1.48
2023-01-29T07:44:15.501Z,-1.47
2023-01-29T07:46:42.427Z,-1.49
2023-01-29T07:49:09.367Z,-1.50
2023-01-29T07:51:36.232Z,-1.43
2023-01-29T07:54:03.119Z,-1.45
2023-01-29T07:56:30.130Z,-1.34
2023-01-29T07:58:57.039Z,-1.30
2023-01-29T08:01:24.067Z,-1.23
2023-01-29T08:03:51.494Z,-1.28
2023-01-29T08:06:19.327Z,-1.34
2023-01-29T08:08:46.292Z,-1.29
2023-01-29T08:11:13.216Z,-1.29
2023-01-29T08:13:40.106Z,-1.25
2023-01-29T08:16:07.740Z,-1.16
2023-01-29T08:18:38.605Z,-1.22
2023-01-29T08:21:05.858Z,-1.24
2023-01-29T08:23:32.702Z,-1.16
2023-01-29T08:25:59.695Z,-1.17
2023-01-29T08:28:26.748Z,-1.08
2023-01-29T08:30:53.815Z,-1.14
2023-01-29T08:33:29.826Z,-1.10
2023-01-29T08:36:04.362Z,-1.13
2023-01-29T08:38:31.345Z,-1.04
2023-01-29T08:40:58.239Z,-0.90
2023-01-29T08:43:25.264Z,-0.71
2023-01-29T08:45:52.254Z,-0.67
2023-01-29T08:48:19.112Z,-0.69
2023-01-29T08:50:46.127Z,-0.72
2023-01-29T08:53:13.069Z,-0.57
2023-01-29T08:55:41.362Z,-0.52
2023-01-29T08:58:11.607Z,-0.46
2023-01-29T09:00:39.009Z,-0.46
2023-01-29T09:03:07.800Z,-0.53
2023-01-29T09:05:39.461Z,-0.51
2023-01-29T09:08:09.026Z,-0.45
2023-01-29T09:10:36.033Z,-0.45
2023-01-29T09:13:03.104Z,-0.37
2023-01-29T09:15:30.167Z,-0.39
2023-01-29T09:17:57.053Z,-0.37
2023-01-29T09:20:24.074Z,-0.33
2023-01-29T09:22:53.538Z,-0.14
2023-01-29T09:25:20.484Z,-0.09
2023-01-29T09:27:47.346Z,-0.14
2023-01-29T09:30:14.668Z,-0.23
2023-01-29T09:32:57.265Z,-0.14
2023-01-29T09:35:24.515Z,-0.04
2023-01-29T09:37:52.360Z,0.08
2023-01-29T09:40:34.500Z,0.36
2023-01-29T09:43:43.609Z,0.68
2023-01-29T09:46:27.345Z,0.46
2023-01-29T09:49:07.093Z,0.67
2023-01-29T09:51:45.022Z,0.85
2023-01-29T09:54:29.676Z,0.94
2023-01-29T09:56:57.515Z,1.18
2023-01-29T09:59:29.872Z,1.05
2023-01-29T10:02:14.685Z,1.00
2023-01-29T10:05:26.935Z,1.16
2023-01-29T10:09:07.781Z,0.93
2023-01-29T10:12:07.841Z,0.88
2023-01-29T10:15:17.929Z,0.80
2023-01-29T10:18:31.706Z,0.85
2023-01-29T10:21:19.665Z,0.81
2023-01-29T10:24:10.853Z,0.79
2023-01-29T10:26:40.593Z,0.72
2023-01-29T10:29:14.408Z,0.66
2023-01-29T10:31:41.483Z,0.63
2023-01-29T10:34:22.155Z,0.54
2023-01-29T10:36:50.404Z,0.55
2023-01-29T10:39:23.215Z,0.83
2023-01-29T10:42:29.711Z,0.83
2023-01-29T10:45:30.441Z,1.05
2023-01-29T10:48:31.031Z,1.36
2023-01-29T10:51:22.485Z,1.26
2023-01-29T10:54:13.333Z,1.16
2023-01-29T10:57:01.432Z,1.22
2023-01-29T11:00:13.156Z,1.21
2023-01-29T11:02:48.644Z,1.24
2023-01-29T11:05:31.129Z,1.23
2023-01-29T11:08:21.578Z,1.25
2023-01-29T11:11:11.818Z,1.37
2023-01-29T11:14:10.754Z,1.37
2023-01-29T11:16:56.442Z,1.50
2023-01-29T11:19:40.095Z,1.40
2023-01-29T11:22:19.823Z,1.17
2023-01-29T11:25:07.918Z,1.32
2023-01-29T11:27:52.116Z,1.42
2023-01-29T11:30:28.346Z,1.70
2023-01-29T11:33:18.573Z,1.80
2023-01-29T11:35:46.131Z,1.79
2023-01-29T11:38:15.719Z,1.89
2023-01-29T11:40:43.584Z,1.66
2023-01-29T11:43:30.871Z,1.74
2023-01-29T11:46:05.043Z,1.67
2023-01-29T11:48:58.988Z,1.64
2023-01-29T11:51:39.989Z,1.86
2023-01-29T11:54:15.124Z,1.95
2023-01-29T11:56:45.415Z,1.83
2023-01-29T11:59:32.292Z,1.81
2023-01-29T12:02:28.236Z,1.98
2023-01-29T12:04:59.564Z,1.88
2023-01-29T12:07:26.687Z,1.80
2023-01-29T12:09:59.710Z,1.78
2023-01-29T12:12:34.768Z,1.88
2023-01-29T12:15:09.020Z,1.77
2023-01-29T12:17:39.541Z,1.93
2023-01-29T12:20:18.474Z,1.75
2023-01-29T12:23:21.027Z,1.89
2023-01-29T12:26:15.842Z,1.92
2023-01-29T12:28:48.226Z,1.93
2023-01-29T12:31:33.995Z,1.80
2023-01-29T12:34:43.500Z,1.64
2023-01-29T12:38:16.908Z,1.83
2023-01-29T12:41:06.027Z,1.58
2023-01-29T12:43:42.907Z,1.61
2023-01-29T12:46:22.488Z,1.67
2023-01-29T12:48:50.660Z,1.49
2023-01-29T12:51:28.015Z,1.63
2023-01-29T12:54:04.981Z,1.51
2023-01-29T12:56:52.711Z,1.67
2023-01-29T12:59:36.585Z,1.85
2023-01-29T13:02:42.101Z,1.93
2023-01-29T13:05:37.669Z,1.91
2023-01-29T13:08:16.317Z,1.73
2023-01-29T13:10:50.619Z,1.73
2023-01-29T13:13:54.090Z,1.63
2023-01-29T13:16:30.931Z,1.50
2023-01-29T13:19:04.654Z,1.50
2023-01-29T13:21:39.847Z,1.43
2023-01-29T13:24:23.899Z,1.45
2023-01-29T13:26:51.536Z,1.48
2023-01-29T13:29:28.457Z,1.47
2023-01-29T13:31:58.528Z,1.48
2023-01-29T13:34:46.535Z,1.33
2023-01-29T13:37:29.891Z,1.36
2023-01-29T13:39:59.551Z,1.44
2023-01-29T13:42:49.987Z,1.60
2023-01-29T13:45:21.426Z,1.49
2023-01-29T13:47:49.999Z,1.48
2023-01-29T13:50:36.054Z,1.54
2023-01-29T13:53:06.651Z,1.39
2023-01-29T13:55:39.337Z,1.45
2023-01-29T13:58:17.061Z,1.56
2023-01-29T14:00:43.879Z,1.48
2023-01-29T14:03:13.448Z,1.48
2023-01-29T14:05:42.197Z,1.43
2023-01-29T14:08:08.978Z,1.49
2023-01-29T14:10:37.636Z,1.63
2023-01-29T14:13:04.420Z,1.53
2023-01-29T14:15:36.893Z,1.50
2023-01-29T14:18:18.883Z,1.46
2023-01-29T14:20:48.464Z,1.59
2023-01-29T14:23:30.679Z,1.71
2023-01-29T14:26:02.712Z,1.63
2023-01-29T14:28:32.560Z,1.53
2023-01-29T14:31:00.036Z,1.56
2023-01-29T14:33:40.998Z,1.56
2023-01-29T14:36:15.955Z,1.52
2023-01-29T14:38:52.533Z,1.54
2023-01-29T14:41:35.687Z,1.48
2023-01-29T14:44:46.787Z,1.47
2023-01-29T14:47:28.932Z,1.46
2023-01-29T14:49:59.044Z,1.43
2023-01-29T14:52:33.722Z,1.24
2023-01-29T14:55:06.757Z,1.23
2023-01-29T14:57:34.102Z,1.28
2023-01-29T15:00:07.211Z,1.27
2023-01-29T15:02:45.480Z,1.36
2023-01-29T15:05:21.690Z,1.25
2023-01-29T15:08:08.384Z,1.27
2023-01-29T15:11:12.487Z,1.17
2023-01-29T15:14:15.045Z,1.16
2023-01-29T15:17:06.725Z,1.10
2023-01-29T15:19:44.796Z,0.98
2023-01-29T15:22:15.855Z,0.98
2023-01-29T15:24:44.433Z,0.99
2023-01-29T15:27:19.473Z,0.92
2023-01-29T15:29:58.984Z,0.91
2023-01-29T15:32:40.315Z,0.86
2023-01-29T15:35:27.512Z,0.76
2023-01-29T15:38:18.338Z,0.77
2023-01-29T15:41:04.608Z,0.74
2023-01-29T15:43:37.414Z,0.73
2023-01-29T15:46:28.048Z,0.69
2023-01-29T15:49:00.108Z,0.61
2023-01-29T15:51:28.998Z,0.59
2023-01-29T15:54:05.688Z,0.54
2023-01-29T15:56:53.081Z,0.48
2023-01-29T15:59:29.342Z,0.35
2023-01-29T16:01:56.430Z,0.40
2023-01-29T16:04:31.388Z,0.45
2023-01-29T16:07:00.494Z,0.41
2023-01-29T16:09:28.793Z,0.40
2023-01-29T16:11:58.829Z,0.47
2023-01-29T16:14:26.762Z,0.48
2023-01-29T16:16:53.986Z,0.41
2023-01-29T16:19:27.002Z,0.32
2023-01-29T16:22:02.259Z,0.32
2023-01-29T16:24:32.539Z,0.27
2023-01-29T16:27:07.190Z,0.32
2023-01-29T16:29:35.583Z,0.20
2023-01-29T16:32:03.626Z,0.13
2023-01-29T16:34:48.283Z,0.17
2023-01-29T16:37:23.518Z,0.12
2023-01-29T16:39:52.723Z,0.16
2023-01-29T16:42:32.247Z,0.10
2023-01-29T16:45:05.215Z,0.12
2023-01-29T16:47:43.621Z,0.12
2023-01-29T16:50:36.046Z,0.23
2023-01-29T16:53:23.289Z,0.20
2023-01-29T16:55:52.493Z,0.19
2023-01-29T16:58:22.827Z,0.28
2023-01-29T17:00:59.414Z,0.24
2023-01-29T17:03:30.039Z,0.30
2023-01-29T17:05:57.195Z,0.31
2023-01-29T17:08:32.139Z,0.27
2023-01-29T17:11:00.106Z,0.26
2023-01-29T17:13:38.623Z,0.26
2023-01-29T17:16:32.584Z,0.25
2023-01-29T17:19:00.206Z,0.26
2023-01-29T17:21:29.162Z,0.20
2023-01-29T17:23:56.306Z,0.27
2023-01-29T17:26:24.677Z,0.28
2023-01-29T17:28:53.506Z,0.35
2023-01-29T17:31:20.473Z,0.32
2023-01-29T17:33:47.891Z,0.37
2023-01-29T17:36:17.739Z,0.33
2023-01-29T17:38:47.021Z,0.37
2023-01-29T17:41:13.740Z,0.43
2023-01-29T17:43:40.792Z,0.46
2023-01-29T17:46:14.875Z,0.39
2023-01-29T17:48:41.938Z,0.26
2023-01-29T17:51:14.627Z,0.34
2023-01-29T17:53:45.993Z,0.38
2023-01-29T17:56:21.092Z,0.32
2023-01-29T17:58:48.063Z,0.32
2023-01-29T18:01:14.983Z,0.34
2023-01-29T18:03:41.893Z,0.30
2023-01-29T18:06:10.847Z,0.42
2023-01-29T18:08:39.707Z,0.36
2023-01-29T18:11:07.048Z,0.25
2023-01-29T18:13:36.121Z,0.25
2023-01-29T18:16:03.284Z,0.29
2023-01-29T18:18:30.405Z,0.21
2023-01-29T18:20:57.311Z,0.21
2023-01-29T18:23:24.354Z,0.26
2023-01-29T18:25:52.715Z,0.18
2023-01-29T18:28:19.741Z,0.12
2023-01-29T18:30:47.569Z,0.09
2023-01-29T18:33:16.440Z,0.16
2023-01-29T18:35:49.467Z,0.33
2023-01-29T18:38:17.732Z,0.34
2023-01-29T18:40:44.616Z,0.22
2023-01-29T18:43:11.579Z,0.31
2023-01-29T18:45:38.534Z,0.30
2023-01-29T18:48:05.862Z,0.27
2023-01-29T18:50:33.396Z,0.28
2023-01-29T18:53:00.736Z,0.34
2023-01-29T18:55:27.696Z,0.24
2023-01-29T18:58:26.624Z,0.27
2023-01-29T19:00:42.641Z,0.28
2023-01-29T19:03:10.789Z,0.22
2023-01-29T19:05:37.873Z,0.17
2023-01-29T19:08:05.761Z,0.17
2023-01-29T19:10:33.777Z,0.21
2023-01-29T19:13:01.484Z,0.20
2023-01-29T19:15:28.731Z,0.15
2023-01-29T19:17:56.729Z,0.31
2023-01-29T19:20:23.604Z,0.36
2023-01-29T19:22:50.637Z,0.26
2023-01-29T19:25:19.601Z,0.21
2023-01-29T19:27:46.966Z,0.21
2023-01-29T19:30:14.211Z,0.38
2023-01-29T19:32:41.442Z,0.30
2023-01-29T19:35:08.495Z,0.35
2023-01-29T19:37:35.394Z,0.33
2023-01-29T19:40:02.387Z,0.30
2023-01-29T19:42:29.469Z,0.31
2023-01-29T19:44:56.453Z,0.36
2023-01-29T19:47:23.421Z,0.32
2023-01-29T19:49:50.354Z,0.33
2023-01-29T19:52:49.882Z,0.31
2023-01-29T19:55:18.580Z,0.33
2023-01-29T19:57:45.834Z,0.34
2023-01-29T20:00:15.472Z,0.34
2023-01-29T20:02:42.332Z,0.33
2023-01-29T20:05:12.019Z,0.42
2023-01-29T20:07:40.038Z,0.37
2023-01-29T20:10:11.275Z,0.43
2023-01-29T20:12:39.662Z,0.42
2023-01-29T20:15:07.504Z,0.51
2023-01-29T20:17:34.423Z,0.52
2023-01-29T20:20:01.289Z,0.53
2023-01-29T20:22:29.967Z,0.54
2023-01-29T20:24:57.088Z,0.59
2023-01-29T20:27:24.559Z,0.59
2023-01-29T20:29:52.588Z,0.58
2023-01-29T20:32:19.818Z,0.51
2023-01-29T20:34:51.812Z,0.60
2023-01-29T20:37:19.543Z,0.71
2023-01-29T20:39:47.118Z,0.70
2023-01-29T20:42:14.136Z,0.67
2023-01-29T20:44:41.685Z,0.75
2023-01-29T20:47:08.668Z,0.77
2023-01-29T20:49:35.719Z,0.81
2023-01-29T20:52:02.657Z,0.88
2023-01-29T20:54:30.043Z,0.88
2023-01-29T20:56:57.255Z,0.85
2023-01-29T20:59:24.402Z,0.81
2023-01-29T21:01:51.455Z,0.92
2023-01-29T21:04:18.451Z,0.88
2023-01-29T21:06:45.388Z,0.90
2023-01-29T21:09:12.220Z,0.89
2023-01-29T21:11:39.144Z,0.87
2023-01-29T21:14:06.089Z,0.89
2023-01-29T21:16:33.003Z,0.87
2023-01-29T21:19:00.055Z,0.94
2023-01-29T21:21:27.076Z,0.99
2023-01-29T21:23:54.480Z,0.99
2023-01-29T21:26:23.218Z,1.00
2023-01-29T21:28:50.138Z,1.01
2023-01-29T21:31:17.692Z,0.99
2023-01-29T21:33:44.795Z,1.02
2023-01-29T21:36:12.299Z,1.06
2023-01-29T21:38:39.928Z,1.05
2023-01-29T21:41:09.986Z,1.12
2023-01-29T21:43:37.831Z,1.04
2023-01-29T21:46:13.793Z,1.12
2023-01-29T21:48:41.068Z,1.10
2023-01-29T21:51:08.317Z,1.19
2023-01-29T21:53:36.630Z,1.13
2023-01-29T21:56:05.915Z,1.21
2023-01-29T21:58:32.807Z,1.11
2023-01-29T22:01:28.036Z,1.14
2023-01-29T22:03:47.544Z,1.25
2023-01-29T22:06:15.376Z,1.23
2023-01-29T22:08:42.674Z,1.26
2023-01-29T22:11:10.096Z,1.19
2023-01-29T22:13:37.290Z,1.25
2023-01-29T22:16:05.853Z,1.25
2023-01-29T22:18:33.204Z,1.26
2023-01-29T22:21:02.641Z,1.28
2023-01-29T22:23:31.181Z,1.25
2023-01-29T22:26:07.190Z,1.31
2023-01-29T22:28:35.074Z,1.37
2023-01-29T22:31:04.088Z,1.39
2023-01-29T22:33:31.834Z,1.36
2023-01-29T22:35:58.731Z,1.34
2023-01-29T22:38:25.998Z,1.38
2023-01-29T22:40:54.623Z,1.44
2023-01-29T22:43:22.747Z,1.44
2023-01-29T22:45:49.568Z,1.46
2023-01-29T22:48:16.500Z,1.43
2023-01-29T22:50:53.786Z,1.44
2023-01-29T22:53:20.862Z,1.39
2023-01-29T22:55:55.701Z,1.41
2023-01-29T22:58:22.680Z,1.47
2023-01-29T23:00:52.276Z,1.46
2023-01-29T23:03:19.132Z,1.47
2023-01-29T23:05:46.040Z,1.49
2023-01-29T23:08:12.937Z,1.54
2023-01-29T23:10:39.773Z,1.54
2023-01-29T23:13:06.723Z,1.54
2023-01-29T23:15:33.548Z,1.58
2023-01-29T23:18:00.467Z,1.63
2023-01-29T23:20:27.376Z,1.63
2023-01-29T23:22:54.368Z,1.58
2023-01-29T23:25:21.276Z,1.49
2023-01-29T23:27:48.179Z,1.50
2023-01-29T23:30:15.068Z,1.52
2023-01-29T23:32:42.438Z,1.53
2023-01-29T23:35:09.690Z,1.51
2023-01-29T23:37:36.570Z,1.47
2023-01-29T23:40:03.941Z,1.54
2023-01-29T23:42:30.880Z,1.49
2023-01-29T23:44:57.928Z,1.48
2023-01-29T23:47:24.791Z,1.59
2023-01-29T23:49:52.814Z,1.58
2023-01-29T23:52:19.852Z,1.58
2023-01-29T23:54:46.677Z,1.61
2023-01-29T23:57:13.574Z,1.62
2023-01-29T23:59:40.386Z,1.67
